Time;durP1;ratioP1;P1;durP2;ratioP2;P2;SDS_P1;SDS_P2;PMS_P1;PMS_P2;Temp;Humidity;BMP_temperature;BMP_pressure;BME280_temperature;BME280_humidity;BME280_pressure;Samples;Min_cycle;Max_cycle;Signal;HPM_P1;HPM_P2
2023/06/19 00:01:52;;;;;;;25.23;15.67;;;;;;;19.98;82.96;100166.50;123418;1102;104176;-75
2023/06/19 00:04:24;;;;;;;25.03;15.30;;;;;;;19.94;83.10;100162.95;123223;1102;104351;-75
2023/06/19 00:06:55;;;;;;;25.53;15.20;;;;;;;19.90;83.28;100164.77;123205;1102;104386;-75
2023/06/19 00:09:26;;;;;;;24.37;14.33;;;;;;;19.88;83.67;100176.32;123156;1099;104293;-77
2023/06/19 00:11:58;;;;;;;25.20;14.73;;;;;;;19.85;84.63;100174.59;123220;1102;104296;-77
2023/06/19 00:14:29;;;;;;;25.40;14.60;;;;;;;19.82;83.83;100173.70;123160;1102;104258;-76
2023/06/19 00:17:01;;;;;;;24.00;14.30;;;;;;;19.84;84.48;100179.92;123251;1102;104248;-76
2023/06/19 00:19:35;;;;;;;24.23;14.30;;;;;;;19.82;84.01;100179.94;123070;1102;104364;-75
2023/06/19 00:22:08;;;;;;;23.47;13.30;;;;;;;19.79;83.01;100179.95;123252;1099;104338;-76
2023/06/19 00:24:39;;;;;;;21.07;12.50;;;;;;;19.79;83.09;100185.28;123212;1099;104217;-76
2023/06/19 00:27:10;;;;;;;20.83;11.93;;;;;;;19.79;84.12;100184.38;123219;1102;104325;-77
2023/06/19 00:29:41;;;;;;;20.50;12.20;;;;;;;19.81;83.78;100182.61;123193;1100;104354;-77
2023/06/19 00:32:13;;;;;;;19.53;11.43;;;;;;;19.81;83.76;100186.14;123178;1100;104733;-77
2023/06/19 00:34:47;;;;;;;19.47;11.20;;;;;;;19.81;83.37;100182.61;123274;1102;104328;-77
2023/06/19 00:37:18;;;;;;;20.67;11.90;;;;;;;19.82;83.66;100187.02;123235;1102;104285;-76
2023/06/19 00:39:49;;;;;;;19.20;11.47;;;;;;;19.81;83.14;100179.94;123213;1102;104287;-76
2023/06/19 00:42:20;;;;;;;19.53;10.90;;;;;;;19.79;83.41;100185.28;123213;1100;104277;-77
2023/06/19 00:44:51;;;;;;;22.20;11.40;;;;;;;19.77;83.03;100180.85;123255;1102;104386;-76
2023/06/19 00:47:23;;;;;;;21.17;11.93;;;;;;;19.75;84.23;100189.69;123283;1099;104310;-77
2023/06/19 00:49:55;;;;;;;19.60;11.27;;;;;;;19.72;84.23;100189.70;123227;1102;104293;-78
2023/06/19 00:52:26;;;;;;;20.73;11.30;;;;;;;19.68;83.59;100182.66;123264;1102;104297;-77
2023/06/19 00:54:57;;;;;;;19.27;10.30;;;;;;;19.66;83.87;100189.74;123308;1102;104249;-77
2023/06/19 00:57:29;;;;;;;17.63;9.70;;;;;;;19.63;83.92;100188.89;123215;1099;104351;-78
2023/06/19 01:00:00;;;;;;;20.77;11.27;;;;;;;19.61;83.50;100191.56;123140;1102;104389;-77
2023/06/19 01:02:32;;;;;;;17.73;10.23;;;;;;;19.60;84.10;100191.57;123234;1102;104313;-77
2023/06/19 01:05:03;;;;;;;19.37;10.37;;;;;;;19.58;83.83;100194.24;123194;1102;104233;-77
2023/06/19 01:07:44;;;;;;;20.50;10.70;;;;;;;19.56;83.77;100193.37;123350;1102;104210;-78
2023/06/19 01:10:19;;;;;;;18.30;10.10;;;;;;;19.54;84.36;100204.03;123216;1102;104504;-75
2023/06/19 01:13:00;;;;;;;18.70;10.37;;;;;;;19.51;84.58;100204.05;123144;1102;104356;-76
2023/06/19 01:15:32;;;;;;;16.97;9.60;;;;;;;19.49;84.14;100199.62;123280;1099;104304;-77
2023/06/19 01:18:05;;;;;;;16.80;9.40;;;;;;;19.48;84.04;100203.19;123266;1102;104371;-78
2023/06/19 01:20:36;;;;;;;18.27;9.27;;;;;;;19.45;84.21;100209.41;123224;1101;104303;-78
2023/06/19 01:23:12;;;;;;;16.83;9.17;;;;;;;19.45;84.14;100214.72;123213;1100;104399;-77
2023/06/19 01:25:44;;;;;;;16.30;9.20;;;;;;;19.43;84.18;100220.94;123180;1102;104320;-77
2023/06/19 01:28:16;;;;;;;18.87;9.63;;;;;;;19.40;84.07;100220.07;123278;1102;104620;-77
2023/06/19 01:30:47;;;;;;;18.65;8.95;;;;;;;19.40;84.58;100217.41;123212;1102;104306;-79
2023/06/19 01:33:27;;;;;;;17.30;8.40;;;;;;;19.39;84.99;100217.42;123218;1099;104306;-77
2023/06/19 01:36:01;;;;;;;17.20;8.70;;;;;;;19.37;84.75;100208.56;123280;1099;104271;-76
2023/06/19 01:38:34;;;;;;;17.00;9.10;;;;;;;19.34;84.68;100212.11;123282;1099;104354;-76
2023/06/19 01:41:08;;;;;;;15.70;8.60;;;;;;;19.34;85.07;100214.78;123279;1099;104246;-77
2023/06/19 01:43:39;;;;;;;17.13;9.07;;;;;;;19.33;85.66;100223.64;123292;1102;104274;-77
2023/06/19 01:46:11;;;;;;;16.20;8.83;;;;;;;19.33;84.79;100225.42;123136;1102;104319;-78
2023/06/19 01:48:42;;;;;;;17.35;8.75;;;;;;;19.32;84.84;100229.88;123214;1102;104511;-76
2023/06/19 01:51:13;;;;;;;17.53;9.30;;;;;;;19.31;85.50;100233.41;123270;1102;104348;-77
2023/06/19 01:53:45;;;;;;;15.40;8.80;;;;;;;19.32;84.88;100235.19;123357;1099;104268;-77
2023/06/19 01:56:16;;;;;;;22.37;9.53;;;;;;;19.31;84.75;100236.07;123320;1098;104268;-77
2023/06/19 01:58:47;;;;;;;18.37;9.07;;;;;;;19.29;85.66;100243.19;123171;1102;104307;-76
2023/06/19 02:01:19;;;;;;;17.60;8.93;;;;;;;19.30;85.34;100242.27;123254;1102;104377;-77
2023/06/19 02:03:50;;;;;;;17.50;9.03;;;;;;;19.30;85.74;100244.94;123247;1102;104329;-76
2023/06/19 02:06:22;;;;;;;17.00;9.00;;;;;;;19.30;85.82;100246.72;123147;1102;104300;-76
2023/06/19 02:08:53;;;;;;;19.57;9.40;;;;;;;19.28;85.64;100249.39;123252;1102;104325;-77
2023/06/19 02:11:25;;;;;;;21.47;9.47;;;;;;;19.27;85.65;100255.58;123255;1099;104348;-77
2023/06/19 02:13:58;;;;;;;17.07;9.67;;;;;;;19.26;85.52;100255.59;123462;1099;104242;-77
2023/06/19 02:16:30;;;;;;;17.67;9.60;;;;;;;19.25;85.46;100257.37;123249;1102;104511;-77
2023/06/19 02:19:01;;;;;;;18.50;10.00;;;;;;;19.22;85.85;100257.39;123245;1099;104360;-77
2023/06/19 02:21:32;;;;;;;19.50;10.37;;;;;;;19.17;86.28;100262.72;123275;1102;104353;-75
2023/06/19 02:24:04;;;;;;;16.87;9.97;;;;;;;19.15;85.91;100263.61;123176;1102;104323;-76
2023/06/19 02:26:36;;;;;;;18.90;9.97;;;;;;;19.13;86.38;100258.30;123152;1102;104395;-76
2023/06/19 02:29:07;;;;;;;17.57;10.03;;;;;;;19.11;85.91;100256.55;123174;1101;104249;-76
2023/06/19 02:31:39;;;;;;;18.07;10.43;;;;;;;19.12;86.45;100258.30;123130;1102;105611;-77
2023/06/19 02:34:10;;;;;;;20.25;10.40;;;;;;;19.10;87.01;100246.79;123393;1102;104274;-78
2023/06/19 02:36:42;;;;;;;19.60;10.67;;;;;;;19.09;86.71;100251.23;123267;1099;104245;-77
2023/06/19 02:39:14;;;;;;;17.87;10.07;;;;;;;19.08;86.42;100262.75;123220;1101;104354;-76
2023/06/19 02:41:46;;;;;;;16.97;9.63;;;;;;;19.09;86.70;100255.64;123243;1100;104626;-77
2023/06/19 02:44:18;;;;;;;17.37;9.37;;;;;;;19.09;86.61;100256.55;123213;1100;104325;-76
2023/06/19 02:46:49;;;;;;;18.47;9.73;;;;;;;19.08;87.37;100253.90;123221;1102;104274;-76
2023/06/19 02:49:20;;;;;;;18.50;9.67;;;;;;;19.08;87.07;100251.23;123274;1102;104351;-77
2023/06/19 02:51:51;;;;;;;18.43;9.80;;;;;;;19.08;87.12;100259.22;123227;1102;104387;-77
2023/06/19 02:54:23;;;;;;;17.53;9.17;;;;;;;19.08;87.01;100264.53;123390;1101;104348;-76
2023/06/19 02:56:54;;;;;;;17.93;9.63;;;;;;;19.09;87.32;100258.30;123363;1102;104249;-77
2023/06/19 02:59:25;;;;;;;20.53;9.23;;;;;;;19.09;86.85;100259.21;123260;1102;104322;-76
2023/06/19 03:01:56;;;;;;;18.80;8.97;;;;;;;19.11;87.22;100262.73;123174;1102;104329;-76
2023/06/19 03:04:29;;;;;;;18.43;9.37;;;;;;;19.12;87.73;100264.52;123175;1102;104648;-77
2023/06/19 03:07:02;;;;;;;18.85;9.40;;;;;;;19.12;87.58;100261.86;123261;1100;104287;-76
2023/06/19 03:09:34;;;;;;;22.07;10.00;;;;;;;19.18;86.98;100258.28;123161;1102;104373;-76
2023/06/19 03:12:06;;;;;;;16.63;8.70;;;;;;;19.23;87.11;100259.17;123238;1099;104271;-77
2023/06/19 03:14:37;;;;;;;19.07;9.43;;;;;;;19.23;87.00;100261.83;123290;1102;104357;-77
2023/06/19 03:17:08;;;;;;;16.80;9.13;;;;;;;19.28;87.22;100252.05;123331;1102;104402;-76
2023/06/19 03:19:40;;;;;;;16.47;8.40;;;;;;;19.31;87.09;100253.82;123255;1102;104284;-76
2023/06/19 03:22:11;;;;;;;17.63;8.77;;;;;;;19.33;87.75;100247.58;123215;1102;104358;-76
2023/06/19 03:24:43;;;;;;;15.57;8.50;;;;;;;19.34;87.47;100254.68;123187;1102;104284;-77
2023/06/19 03:27:26;;;;;;;14.87;8.60;;;;;;;19.37;87.47;100251.14;123318;1102;104358;-77
2023/06/19 03:29:58;;;;;;;17.03;8.77;;;;;;;19.44;87.39;100251.98;123270;1099;104242;-77
2023/06/19 03:32:37;;;;;;;18.93;9.17;;;;;;;19.51;87.13;100254.61;123392;1102;104432;-77
2023/06/19 03:35:10;;;;;;;17.53;9.13;;;;;;;19.56;87.40;100244.81;123575;1101;104373;-79
2023/06/19 03:37:45;;;;;;;14.63;8.43;;;;;;;19.64;87.35;100252.76;123540;1102;104344;-77
2023/06/19 03:40:17;;;;;;;18.20;8.70;;;;;;;19.69;87.31;100253.61;123912;1102;104349;-78
2023/06/19 03:42:49;;;;;;;15.80;8.57;;;;;;;19.74;87.26;100248.26;123323;1100;104402;-77
2023/06/19 03:45:20;;;;;;;18.40;9.03;;;;;;;19.76;87.94;100251.81;123557;1102;104384;-78
2023/06/19 03:47:51;;;;;;;13.73;8.10;;;;;;;19.75;86.91;100248.25;123776;1102;104373;-80
2023/06/19 03:50:23;;;;;;;17.90;8.27;;;;;;;19.80;87.31;100261.56;123826;1099;104248;-79
2023/06/19 03:52:54;;;;;;;15.93;8.77;;;;;;;19.86;86.89;100252.67;123888;1099;104281;-80
2023/06/19 03:55:25;;;;;;;15.13;8.27;;;;;;;19.87;87.28;100252.66;123743;1102;104307;-79
2023/06/19 03:57:56;;;;;;;13.83;7.87;;;;;;;19.90;87.57;100257.09;124028;1102;104418;-82
2023/06/19 04:00:28;;;;;;;11.83;7.30;;;;;;;19.92;86.56;100256.17;123868;1102;104255;-78
2023/06/19 04:02:59;;;;;;;13.87;7.50;;;;;;;19.91;87.17;100246.43;123871;1102;104258;-79
2023/06/19 04:05:31;;;;;;;12.43;7.50;;;;;;;19.90;86.29;100244.66;123768;1099;104283;-79
2023/06/19 04:08:03;;;;;;;13.57;7.47;;;;;;;19.89;86.50;100247.33;123903;1099;104386;-80
2023/06/19 04:10:34;;;;;;;15.07;7.80;;;;;;;19.84;86.39;100249.14;123950;1102;104232;-81
2023/06/19 04:13:06;;;;;;;15.13;7.53;;;;;;;19.81;86.22;100262.47;123730;1100;104254;-79
2023/06/19 04:15:38;;;;;;;13.87;7.60;;;;;;;19.80;86.37;100264.23;123960;1101;104169;-81
2023/06/19 04:18:09;;;;;;;12.63;7.50;;;;;;;19.79;86.46;100266.90;123983;1102;104304;-80
2023/06/19 04:20:42;;;;;;;14.13;7.40;;;;;;;19.78;86.04;100267.81;123828;1102;104226;-80
2023/06/19 04:23:13;;;;;;;14.10;7.50;;;;;;;19.76;87.15;100270.45;124044;1102;104275;-79
2023/06/19 04:25:45;;;;;;;14.47;7.90;;;;;;;19.75;86.58;100277.53;124023;1100;104312;-79
2023/06/19 04:28:16;;;;;;;13.10;7.37;;;;;;;19.72;87.04;100282.00;123857;1099;104249;-79
2023/06/19 04:30:47;;;;;;;13.23;6.80;;;;;;;19.70;87.11;100279.34;124087;1102;104258;-79
2023/06/19 04:33:20;;;;;;;13.03;7.23;;;;;;;19.73;86.16;100279.33;124090;1099;104241;-81
2023/06/19 04:35:52;;;;;;;11.70;7.03;;;;;;;19.78;86.41;100287.33;124013;1102;104641;-79
2023/06/19 04:38:24;;;;;;;10.85;7.10;;;;;;;19.81;86.91;100294.42;124068;1102;104173;-79
2023/06/19 04:40:57;;;;;;;12.25;6.95;;;;;;;19.81;86.61;100294.42;124221;1102;104271;-79
2023/06/19 04:43:28;;;;;;;13.25;7.60;;;;;;;19.81;85.91;100292.63;123889;1102;104242;-80
2023/06/19 04:46:00;;;;;;;14.67;7.37;;;;;;;19.79;86.57;100297.09;124153;1100;104661;-78
2023/06/19 04:48:31;;;;;;;11.93;6.37;;;;;;;19.75;85.99;100304.16;124340;1099;104126;-78
2023/06/19 04:51:02;;;;;;;16.17;7.70;;;;;;;19.71;85.89;100313.07;124118;1102;104287;-80
2023/06/19 04:53:33;;;;;;;13.17;6.83;;;;;;;19.67;86.11;100316.62;123909;1102;104235;-79
2023/06/19 04:56:05;;;;;;;14.50;7.77;;;;;;;19.66;86.83;100314.84;124100;1102;104309;-79
2023/06/19 04:58:38;;;;;;;14.73;7.70;;;;;;;19.65;86.35;100315.76;124273;1100;104371;-81
2023/06/19 05:01:10;;;;;;;16.57;7.62;;;;;;;19.64;86.24;100323.75;124185;1102;104242;-81
2023/06/19 05:03:42;;;;;;;14.63;7.33;;;;;;;19.66;86.43;100320.16;124050;1102;104365;-83
2023/06/19 05:06:13;;;;;;;15.30;7.43;;;;;;;19.68;86.99;100318.41;124301;1102;104243;-82
2023/06/19 05:08:45;;;;;;;17.15;7.75;;;;;;;19.70;86.76;100321.94;124468;1102;104274;-82
2023/06/19 05:11:16;;;;;;;14.90;7.67;;;;;;;19.67;86.19;100319.28;124646;1102;102258;-80
2023/06/19 05:13:48;;;;;;;18.67;8.43;;;;;;;19.65;86.30;100317.52;124737;1102;104243;-79
2023/06/19 05:16:19;;;;;;;16.10;8.10;;;;;;;19.61;87.64;100316.65;125015;1099;104166;-80
2023/06/19 05:18:51;;;;;;;16.63;7.97;;;;;;;19.56;86.61;100319.33;124825;1102;104322;-80
2023/06/19 05:21:22;;;;;;;16.47;8.20;;;;;;;19.53;87.28;100323.79;124820;1102;102818;-79
2023/06/19 05:23:53;;;;;;;14.77;8.23;;;;;;;19.47;87.25;100332.67;124495;1102;104232;-81
2023/06/19 05:26:26;;;;;;;17.37;8.03;;;;;;;19.43;87.56;100332.69;124201;1102;104805;-82
2023/06/19 05:28:57;;;;;;;15.40;8.30;;;;;;;19.40;87.94;100336.27;124272;1100;104178;-80
2023/06/19 05:31:28;;;;;;;17.47;8.37;;;;;;;19.40;87.61;100337.14;124421;1102;103537;-82
2023/06/19 05:33:59;;;;;;;20.73;9.17;;;;;;;19.39;87.55;100334.48;124450;1102;104287;-79
2023/06/19 05:36:31;;;;;;;15.00;8.37;;;;;;;19.38;88.45;100332.70;124353;1100;107341;-80
2023/06/19 05:39:02;;;;;;;18.37;9.17;;;;;;;19.36;88.26;100332.70;124391;1099;104303;-80
2023/06/19 05:41:33;;;;;;;19.10;8.60;;;;;;;19.40;87.83;100330.94;124383;1099;104281;-81
2023/06/19 05:44:07;;;;;;;16.80;8.90;;;;;;;19.47;88.48;100334.45;124390;1101;104255;-79
2023/06/19 05:46:38;;;;;;;16.73;8.87;;;;;;;19.52;88.79;100337.98;124403;1102;104191;-82
2023/06/19 05:49:10;;;;;;;16.95;9.40;;;;;;;19.52;89.07;100333.53;124335;1099;104323;-79
2023/06/19 05:51:44;;;;;;;17.20;8.83;;;;;;;19.53;89.59;100335.31;124342;1100;104169;-77
2023/06/19 05:54:17;;;;;;;15.77;8.17;;;;;;;19.55;89.41;100344.16;124062;1102;104172;-78
2023/06/19 05:56:50;;;;;;;16.47;8.70;;;;;;;19.60;89.23;100340.61;124276;1102;104248;-81
2023/06/19 05:59:21;;;;;;;17.20;8.80;;;;;;;19.67;89.82;100334.38;124171;1102;104274;-77
2023/06/19 06:01:53;;;;;;;14.87;8.50;;;;;;;19.68;89.98;100336.13;124216;1102;104331;-80
2023/06/19 06:04:24;;;;;;;16.37;8.60;;;;;;;19.71;89.99;100337.02;124323;1102;104169;-81
2023/06/19 06:06:55;;;;;;;17.80;8.80;;;;;;;19.74;89.26;100338.77;124442;1102;103366;-78
2023/06/19 06:09:27;;;;;;;18.43;8.73;;;;;;;19.74;89.67;100339.67;124976;1101;104230;-78
2023/06/19 06:11:59;;;;;;;14.73;8.27;;;;;;;19.76;89.83;100337.00;124277;1100;104158;-78
2023/06/19 06:14:31;;;;;;;15.30;8.57;;;;;;;19.77;89.93;100337.91;124601;1102;104248;-80
2023/06/19 06:17:05;;;;;;;19.67;8.67;;;;;;;19.74;90.20;100337.02;124541;1102;104192;-81
2023/06/19 06:19:38;;;;;;;15.23;8.03;;;;;;;19.71;89.54;100337.02;124392;1102;104437;-79
2023/06/19 06:22:12;;;;;;;15.83;8.20;;;;;;;19.72;90.25;100337.90;124763;1101;104251;-75
2023/06/19 06:24:48;;;;;;;14.40;8.23;;;;;;;19.69;90.43;100336.13;124240;1102;104444;-79
2023/06/19 06:27:25;;;;;;;15.73;8.70;;;;;;;19.68;90.87;100334.38;124442;1102;104281;-81
2023/06/19 06:30:00;;;;;;;15.20;7.95;;;;;;;19.67;91.36;100332.59;124454;1102;104313;-81
2023/06/19 06:32:37;;;;;;;13.70;8.00;;;;;;;19.68;91.12;100329.05;124469;1102;102761;-76
2023/06/19 06:35:10;;;;;;;19.50;8.83;;;;;;;19.73;91.11;100326.37;124600;1102;104236;-79
2023/06/19 06:37:43;;;;;;;16.83;8.77;;;;;;;19.79;91.15;100330.80;124399;1102;118504;-78
2023/06/19 06:40:15;;;;;;;15.97;8.10;;;;;;;19.85;91.70;100322.78;124357;1102;104274;-77
2023/06/19 06:42:49;;;;;;;17.17;8.73;;;;;;;19.94;90.93;100325.39;124382;1101;104236;-78
2023/06/19 06:45:21;;;;;;;16.00;7.73;;;;;;;20.01;92.04;100324.47;124314;1102;102326;-79
2023/06/19 06:47:53;;;;;;;13.17;7.50;;;;;;;20.01;91.86;100318.27;124487;1102;104264;-78
2023/06/19 06:50:24;;;;;;;16.13;8.43;;;;;;;20.01;92.13;100316.48;124543;1102;103362;-76
2023/06/19 06:52:55;;;;;;;15.03;8.30;;;;;;;20.03;92.19;100313.81;124424;1102;104085;-76
2023/06/19 06:55:31;;;;;;;15.33;8.37;;;;;;;20.04;92.57;100311.14;124599;1100;103461;-79
2023/06/19 06:58:06;;;;;;;16.73;8.93;;;;;;;20.10;92.57;100307.53;124495;1102;111452;-75
2023/06/19 07:00:37;;;;;;;13.97;8.70;;;;;;;20.16;92.33;100317.27;124351;1102;104229;-72
2023/06/19 07:03:09;;;;;;;15.63;8.60;;;;;;;20.22;92.12;100315.45;124300;1102;102242;-74
2023/06/19 07:05:41;;;;;;;20.63;9.73;;;;;;;20.30;92.90;100307.40;124166;1102;105681;-75
2023/06/19 07:08:12;;;;;;;18.17;9.20;;;;;;;20.35;92.83;100304.70;124202;1101;104201;-74
2023/06/19 07:10:47;;;;;;;16.57;9.05;;;;;;;20.37;91.78;100309.13;124111;1100;104226;-77
2023/06/19 07:13:18;;;;;;;15.40;8.90;;;;;;;20.35;92.89;100308.27;124232;1102;104244;-78
2023/06/19 07:15:50;;;;;;;16.93;9.07;;;;;;;20.35;92.21;100308.27;124110;1102;104239;-75
2023/06/19 07:18:22;;;;;;;17.30;8.70;;;;;;;20.42;92.97;100311.77;124150;1102;104409;-77
2023/06/19 07:23:31;;;;;;;16.60;8.93;;;;;;;20.55;92.81;100305.42;124184;1102;104271;-76
2023/06/19 07:26:03;;;;;;;15.73;8.27;;;;;;;20.62;91.47;100314.27;124251;1101;104249;-76
2023/06/19 07:28:36;;;;;;;15.10;8.03;;;;;;;20.70;92.59;100292.91;124155;1102;104279;-74
2023/06/19 07:31:08;;;;;;;17.07;7.87;;;;;;;20.75;92.79;100293.74;124151;1102;104243;-74
2023/06/19 07:33:40;;;;;;;16.03;8.13;;;;;;;20.77;91.73;100294.60;124282;1102;104181;-75
2023/06/19 07:36:13;;;;;;;13.13;7.47;;;;;;;20.80;92.05;100291.91;124271;1099;104283;-74
2023/06/19 07:38:46;;;;;;;17.43;7.53;;;;;;;20.83;92.25;100297.20;124340;1102;103625;-80
2023/06/19 07:41:18;;;;;;;13.70;7.30;;;;;;;20.89;91.63;100301.61;124473;1100;104197;-76
2023/06/19 07:43:50;;;;;;;12.27;7.17;;;;;;;20.93;91.64;100306.91;124376;1102;104252;-77
2023/06/19 07:46:36;;;;;;;14.43;7.40;;;;;;;21.01;91.44;100305.03;124267;1102;104201;-76
2023/06/19 07:49:12;;;;;;;13.53;6.87;;;;;;;21.10;91.53;100313.83;124525;1102;112215;-79
2023/06/19 07:51:49;;;;;;;15.90;7.00;;;;;;;21.18;91.61;100319.98;124572;1102;104274;-75
2023/06/19 07:54:28;;;;;;;10.47;6.80;;;;;;;21.26;90.94;100331.45;124480;1102;104246;-78
2023/06/19 07:57:00;;;;;;;12.70;7.20;;;;;;;21.32;90.96;100330.52;124238;1102;104402;-79
2023/06/19 07:59:34;;;;;;;12.17;7.30;;;;;;;21.40;90.31;100330.42;124097;1102;104280;-73
2023/06/19 08:02:07;;;;;;;14.07;7.60;;;;;;;21.47;91.35;100327.67;124123;1102;104197;-71
2023/06/19 08:04:38;;;;;;;15.20;7.40;;;;;;;21.60;90.63;100332.86;124169;1102;104275;-74
2023/06/19 08:07:10;;;;;;;14.25;7.50;;;;;;;21.72;90.92;100333.61;124139;1102;104220;-81
2023/06/19 08:09:41;;;;;;;12.67;7.07;;;;;;;21.87;90.40;100342.32;124324;1102;104243;-75
2023/06/19 08:12:15;;;;;;;14.27;6.87;;;;;;;22.03;90.13;100345.66;124396;1102;104678;-80
2023/06/19 08:14:45;;;;;;;;;;;;;;;22.15;88.37;100340.14;124242;1102;104259;-77
2023/06/19 08:17:16;;;;;;;12.23;6.93;;;;;;;22.30;89.24;100335.47;124433;1099;104287;-75
2023/06/19 08:19:48;;;;;;;10.77;6.83;;;;;;;22.36;88.50;100325.63;124190;1102;118262;-77
2023/06/19 08:22:21;;;;;;;12.13;6.30;;;;;;;;;;124359;1102;104246;-81
2023/06/19 08:24:56;;;;;;;11.73;6.87;;;;;;;22.44;88.09;100318.36;124256;1102;104329;-78
2023/06/19 08:27:30;;;;;;;11.97;7.07;;;;;;;22.56;88.09;100327.98;124428;1102;104230;-80
2023/06/19 08:30:02;;;;;;;16.13;6.93;;;;;;;22.65;88.12;100331.40;124383;1102;104283;-74
2023/06/19 08:32:34;;;;;;;14.17;7.30;;;;;;;22.65;87.66;100336.75;124290;1099;104435;-76
2023/06/19 08:35:08;;;;;;;15.83;6.63;;;;;;;22.64;87.15;100334.97;124193;1098;102444;-77
2023/06/19 08:37:42;;;;;;;12.77;6.87;;;;;;;22.58;87.17;100342.20;124431;1099;104060;-79
2023/06/19 08:40:15;;;;;;;10.37;6.73;;;;;;;22.54;87.09;100340.47;124245;1099;112635;-79
2023/06/19 08:42:46;;;;;;;12.87;7.23;;;;;;;22.51;87.02;100339.64;124755;1102;104733;-75
2023/06/19 08:45:20;;;;;;;17.50;7.10;;;;;;;22.46;87.07;100339.72;124278;1102;104201;-76
2023/06/19 08:47:58;;;;;;;11.47;6.77;;;;;;;22.40;86.63;100337.14;124423;1099;104243;-77
2023/06/19 08:50:30;;;;;;;15.43;7.13;;;;;;;22.26;85.79;100339.98;124383;1102;104275;-80
2023/06/19 08:53:02;;;;;;;13.33;6.60;;;;;;;22.19;86.57;100339.20;126267;1099;101900;-77
2023/06/19 08:55:34;;;;;;;12.43;7.03;;;;;;;22.16;86.21;100335.67;124877;1102;104267;-78
2023/06/19 08:58:06;;;;;;;11.30;6.50;;;;;;;22.12;86.34;100342.86;124429;1100;104265;-77
2023/06/19 09:00:37;;;;;;;11.33;6.23;;;;;;;22.14;85.84;100350.85;124235;1102;104235;-78
2023/06/19 09:03:12;;;;;;;13.05;6.95;;;;;;;22.10;85.47;100343.81;124568;1099;104259;-77
2023/06/19 09:05:49;;;;;;;14.30;6.70;;;;;;;22.14;85.65;100342.84;124271;1099;102352;-78
2023/06/19 09:08:24;;;;;;;13.90;6.50;;;;;;;22.20;85.10;100329.39;124501;1102;104191;-79
2023/06/19 09:11:03;;;;;;;12.93;6.83;;;;;;;22.29;84.87;100328.37;124392;1102;118204;-78
2023/06/19 09:13:36;;;;;;;13.17;7.00;;;;;;;22.39;85.18;100336.27;126405;1101;102296;-80
2023/06/19 09:16:16;;;;;;;14.17;7.20;;;;;;;22.50;85.05;100344.12;125962;1101;104185;-79
2023/06/19 09:18:49;;;;;;;11.70;6.90;;;;;;;22.67;85.15;100345.62;124515;1102;104220;-79
2023/06/19 09:21:26;;;;;;;12.50;6.77;;;;;;;22.93;84.62;100354.07;124606;1102;103035;-79
2023/06/19 09:24:10;;;;;;;13.13;6.87;;;;;;;23.28;85.23;100347.24;124556;1102;102506;-80
2023/06/19 09:26:47;;;;;;;12.63;6.60;;;;;;;23.67;84.98;100346.48;124296;1099;104333;-77
2023/06/19 09:29:27;;;;;;;13.10;6.60;;;;;;;23.90;83.43;100347.80;125103;1101;104239;-79
2023/06/19 09:32:03;;;;;;;15.13;6.77;;;;;;;23.97;82.92;100336.91;124956;1102;104179;-81
2023/06/19 09:34:41;;;;;;;11.75;6.75;;;;;;;24.03;82.22;100342.14;125277;1102;102151;-82
2023/06/19 09:37:15;;;;;;;11.73;6.70;;;;;;;24.00;82.07;100338.66;124854;1102;102371;-80
2023/06/19 09:39:51;;;;;;;12.57;6.20;;;;;;;24.01;82.01;100345.77;124890;1102;104271;-79
2023/06/19 09:42:31;;;;;;;11.87;6.37;;;;;;;24.01;81.62;100340.40;124546;1102;104342;-77
2023/06/19 09:45:06;;;;;;;14.53;6.90;;;;;;;23.95;81.17;100341.44;124491;1099;104216;-76
2023/06/19 09:47:44;;;;;;;11.50;6.27;;;;;;;23.80;80.33;100328.34;124765;1102;104169;-80
2023/06/19 09:50:18;;;;;;;13.30;6.73;;;;;;;23.71;80.19;100320.50;124811;1102;102309;-80
2023/06/19 09:52:57;;;;;;;15.03;7.00;;;;;;;23.65;80.52;100322.41;126085;1101;102569;-78
2023/06/19 09:55:34;;;;;;;13.40;6.37;;;;;;;23.62;80.35;100319.79;126153;1101;102185;-81
2023/06/19 09:58:07;;;;;;;9.57;6.30;;;;;;;23.54;79.95;100313.69;126155;1101;101403;-78
2023/06/19 10:00:39;;;;;;;11.80;6.60;;;;;;;23.46;79.83;100311.17;126207;1100;102691;-77
2023/06/19 10:03:16;;;;;;;14.33;6.97;;;;;;;23.37;79.96;100302.45;126050;1102;102761;-79
2023/06/19 10:06:03;;;;;;;14.10;7.40;;;;;;;23.30;79.46;100305.25;126110;1101;102753;-78
2023/06/19 10:08:46;;;;;;;15.23;7.30;;;;;;;23.23;79.55;100310.75;126130;1099;101940;-78
2023/06/19 10:11:20;;;;;;;13.35;7.30;;;;;;;23.13;79.33;100302.03;125976;1102;102837;-77
2023/06/19 10:14:07;;;;;;;12.23;7.20;;;;;;;23.03;79.31;100305.74;126053;1101;102083;-78
2023/06/19 10:16:38;;;;;;;14.80;7.10;;;;;;;22.97;80.10;100318.34;125464;1102;102489;-79
2023/06/19 10:19:17;;;;;;;14.50;6.90;;;;;;;23.01;79.61;100324.50;124414;1102;104179;-77
2023/06/19 10:21:50;;;;;;;15.47;7.57;;;;;;;23.03;79.31;100329.83;126214;1099;102501;-79
2023/06/19 10:24:24;;;;;;;14.07;7.20;;;;;;;22.97;79.68;100325.49;125950;1100;102478;-82
2023/06/19 10:27:04;;;;;;;16.30;7.28;;;;;;;22.94;79.65;100323.75;124864;1099;104230;-80
2023/06/19 10:29:42;;;;;;;13.10;7.33;;;;;;;22.91;79.81;100323.80;125024;1102;104255;-79
2023/06/19 10:32:14;;;;;;;13.87;7.40;;;;;;;22.90;79.87;100322.02;124670;1102;104159;-80
2023/06/19 10:34:48;;;;;;;15.80;8.40;;;;;;;22.90;79.81;100330.05;124940;1102;102745;-78
2023/06/19 10:37:34;;;;;;;15.10;7.87;;;;;;;22.86;79.19;100324.78;124897;1102;104246;-80
2023/06/19 10:40:10;;;;;;;10.93;6.80;;;;;;;22.85;79.86;100323.03;125118;1102;103483;-77
2023/06/19 10:42:43;;;;;;;14.03;7.43;;;;;;;22.87;79.72;100323.88;126089;1100;102612;-81
2023/06/19 10:45:17;;;;;;;15.17;7.77;;;;;;;22.87;79.43;100327.42;125716;1099;102438;-77
2023/06/19 10:47:56;;;;;;;14.40;8.13;;;;;;;22.85;79.53;100329.25;124784;1102;104217;-79
2023/06/19 10:50:38;;;;;;;14.77;8.43;;;;;;;22.82;79.27;100331.98;124753;1102;104283;-81
2023/06/19 10:53:32;;;;;;;12.83;7.63;;;;;;;22.80;79.50;100328.47;124873;1102;104262;-79
2023/06/19 10:56:11;;;;;;;15.03;7.90;;;;;;;22.79;79.54;100332.04;124485;1102;104255;-80
2023/06/19 10:58:48;;;;;;;12.03;7.37;;;;;;;22.74;79.24;100332.12;126161;1101;101801;-80
2023/06/19 11:01:21;;;;;;;13.77;7.40;;;;;;;22.75;79.53;100335.66;126219;1101;102758;-81
2023/06/19 11:04:00;;;;;;;12.20;7.55;;;;;;;22.73;79.40;100330.34;126257;1101;102885;-82
2023/06/19 11:06:36;;;;;;;16.63;8.07;;;;;;;22.76;79.49;100329.42;126108;1102;102272;-80
2023/06/19 11:09:14;;;;;;;14.33;7.50;;;;;;;22.78;79.61;100336.52;125346;1099;103522;-80
2023/06/19 11:11:48;;;;;;;12.87;7.80;;;;;;;22.81;79.19;100340.91;124700;1102;102926;-81
2023/06/19 11:14:20;;;;;;;14.13;7.80;;;;;;;22.82;79.61;100340.01;124874;1101;104360;-82
2023/06/19 11:16:52;;;;;;;14.97;7.97;;;;;;;22.89;80.02;100328.30;124833;1102;103193;-83
2023/06/19 11:19:33;;;;;;;13.23;7.70;;;;;;;22.98;79.78;100330.81;124613;1102;104217;-80
2023/06/19 11:22:07;;;;;;;14.67;8.47;;;;;;;23.11;79.99;100342.20;124659;1102;102786;-81
2023/06/19 11:24:44;;;;;;;14.17;7.80;;;;;;;23.28;79.19;100338.30;124543;1102;104339;-79
2023/06/19 11:27:27;;;;;;;13.90;7.63;;;;;;;23.48;79.77;100336.14;124714;1100;104213;-79
2023/06/19 11:29:59;;;;;;;12.83;7.40;;;;;;;23.69;79.97;100332.12;124658;1102;104297;-79
2023/06/19 11:32:52;;;;;;;12.33;7.17;;;;;;;23.90;79.49;100340.64;124626;1102;103096;-78